Terminal Aerodrome Forecast
Issued by NWS

Current Version | Previous Version | Graphics & Text | Print | Product List | Glossary On
Versions: 1 2 3 4 5 6 7 8 9 10 11 12 13 14 15 16 17 18 19 20
000
FTUS41 KPBZ 211733
TAFMGW
TAF
KMGW 211733Z 2118/2218 25008KT P6SM BKN050
     FM212200 27006KT P6SM BKN050
     FM221100 VRB04KT P6SM BKN100
     FM221500 23007KT P6SM BKN050=

USA.gov is the U.S. government's official web portal to all federal, state and local government web resources and services.